Time;durP1;ratioP1;P1;durP2;ratioP2;P2;SDS_P1;SDS_P2;PMS_P1;PMS_P2;Temp;Humidity;BMP_temperature;BMP_pressure;BME280_temperature;BME280_humidity;BME280_pressure;Samples;Min_cycle;Max_cycle;Signal;HPM_P1;HPM_P2
2023/08/20 00:00:28;;;;;;;4.88;1.85;;;15.50;99.90;;;;;;5126877;27;20052;-56
2023/08/20 00:03:01;;;;;;;3.40;1.90;;;15.50;99.90;;;;;;5095345;28;20047;-56
2023/08/20 00:05:27;;;;;;;2.67;2.35;;;15.40;99.90;;;;;;5116030;27;20115;-56
2023/08/20 00:07:52;;;;;;;2.95;2.03;;;15.40;99.90;;;;;;5125256;27;20442;-56
2023/08/20 00:10:18;;;;;;;5.00;1.70;;;15.40;99.90;;;;;;5118469;27;20059;-57
2023/08/20 00:12:48;;;;;;;3.90;1.38;;;15.30;99.90;;;;;;5126583;27;20049;-59
2023/08/20 00:15:13;;;;;;;3.05;1.60;;;15.30;99.90;;;;;;5099217;27;20055;-58
2023/08/20 00:17:40;;;;;;;2.08;1.60;;;15.30;99.90;;;;;;5127719;27;20051;-57
2023/08/20 00:20:12;;;;;;;2.90;1.45;;;15.20;99.90;;;;;;5099572;28;20547;-56
2023/08/20 00:22:42;;;;;;;4.65;1.20;;;15.20;99.90;;;;;;5113957;27;20116;-56
2023/08/20 00:25:08;;;;;;;3.22;1.70;;;15.20;99.90;;;;;;5126824;27;20055;-56
2023/08/20 00:27:34;;;;;;;8.45;1.75;;;15.20;99.90;;;;;;5082664;27;1106409;-56
2023/08/20 00:30:00;;;;;;;3.78;2.28;;;15.10;99.90;;;;;;5124546;27;20050;-57
2023/08/20 00:32:25;;;;;;;3.40;1.48;;;15.00;99.90;;;;;;5129641;27;20059;-57
2023/08/20 00:34:51;;;;;;;5.35;1.90;;;15.00;99.90;;;;;;5122261;27;20039;-56
2023/08/20 00:37:17;;;;;;;2.25;1.40;;;14.90;99.90;;;;;;5108562;27;20503;-56
2023/08/20 00:39:43;;;;;;;1.40;1.08;;;14.80;99.90;;;;;;5130101;27;20112;-56
2023/08/20 00:42:08;;;;;;;2.85;1.20;;;14.70;99.90;;;;;;5109820;27;20146;-57
2023/08/20 00:44:35;;;;;;;5.18;1.40;;;14.70;99.90;;;;;;5127962;27;20051;-57
2023/08/20 00:47:04;;;;;;;3.00;1.95;;;14.60;99.90;;;;;;5128210;27;20055;-57
2023/08/20 00:49:31;;;;;;;3.22;1.13;;;14.60;99.90;;;;;;5108887;27;20133;-57
2023/08/20 00:51:58;;;;;;;3.83;1.70;;;14.60;99.90;;;;;;5124104;27;20120;-62
2023/08/20 00:54:25;;;;;;;2.22;1.35;;;14.60;99.90;;;;;;5130738;27;20592;-57
2023/08/20 00:56:51;;;;;;;3.25;1.23;;;14.60;99.90;;;;;;5106780;27;20062;-57
2023/08/20 00:59:17;;;;;;;2.30;1.38;;;14.50;99.90;;;;;;5130901;27;20051;-60
2023/08/20 01:01:43;;;;;;;2.65;1.30;;;14.50;99.90;;;;;;5130317;27;20051;-59
2023/08/20 01:04:09;;;;;;;3.80;1.40;;;14.50;99.90;;;;;;5109399;27;20066;-58
2023/08/20 01:06:48;;;;;;;3.58;1.65;;;14.50;99.90;;;;;;5109217;27;20066;-57
2023/08/20 01:09:28;;;;;;;2.15;1.60;;;14.50;99.90;;;;;;5098621;27;20111;-58
2023/08/20 01:11:58;;;;;;;2.50;1.40;;;14.50;99.90;;;;;;5096642;27;20051;-61
2023/08/20 01:14:24;;;;;;;4.20;1.17;;;14.50;99.90;;;;;;5122722;27;20058;-60
2023/08/20 01:16:50;;;;;;;8.55;2.72;;;14.50;99.90;;;;;;5128809;27;20752;-61
2023/08/20 01:19:21;;;;;;;2.88;2.22;;;14.50;99.90;;;;;;5129892;27;20132;-59
2023/08/20 01:21:48;;;;;;;8.98;3.28;;;14.50;99.90;;;;;;5130269;27;20146;-56
2023/08/20 01:24:29;;;;;;;3.70;2.38;;;14.50;99.90;;;;;;5114704;27;20060;-57
2023/08/20 01:27:24;;;;;;;3.88;2.40;;;14.40;99.90;;;;;;5118874;27;20462;-55
2023/08/20 01:29:50;;;;;;;4.97;1.90;;;14.50;99.90;;;;;;5125848;27;20328;-58
2023/08/20 01:32:17;;;;;;;5.55;2.47;;;14.50;99.90;;;;;;5128964;27;20099;-57
2023/08/20 01:34:43;;;;;;;4.18;1.70;;;14.40;99.90;;;;;;5127379;27;20451;-57
2023/08/20 01:37:09;;;;;;;2.00;1.80;;;14.40;99.90;;;;;;5127237;27;20485;-57
2023/08/20 01:39:35;;;;;;;6.53;2.30;;;14.40;99.90;;;;;;5111442;27;20054;-59
2023/08/20 01:42:00;;;;;;;2.92;1.80;;;14.40;99.90;;;;;;5127219;27;20050;-58
2023/08/20 01:44:26;;;;;;;5.07;1.80;;;14.40;99.90;;;;;;5130171;27;20104;-57
2023/08/20 01:46:52;;;;;;;5.35;1.65;;;14.40;99.90;;;;;;5123765;27;20058;-60
2023/08/20 01:49:18;;;;;;;3.97;1.98;;;14.30;99.90;;;;;;5129420;27;20138;-56
2023/08/20 01:51:43;;;;;;;8.20;2.17;;;14.30;99.90;;;;;;5127165;27;20059;-56
2023/08/20 01:54:09;;;;;;;2.03;1.70;;;14.30;99.90;;;;;;5108263;27;20055;-58
2023/08/20 01:56:35;;;;;;;3.25;1.90;;;14.30;99.90;;;;;;5128354;27;20059;-56
2023/08/20 01:59:01;;;;;;;5.30;2.30;;;14.30;99.90;;;;;;5120966;27;20047;-56
2023/08/20 02:01:27;;;;;;;4.78;1.92;;;14.30;99.90;;;;;;5120971;27;20066;-56
2023/08/20 02:03:53;;;;;;;5.88;2.55;;;14.30;99.90;;;;;;5120875;27;20058;-56
2023/08/20 02:06:19;;;;;;;4.80;2.10;;;14.20;99.90;;;;;;5126379;27;20089;-57
2023/08/20 02:08:48;;;;;;;3.85;2.08;;;14.20;99.90;;;;;;5128537;27;20593;-57
2023/08/20 02:11:14;;;;;;;6.00;2.50;;;14.20;99.90;;;;;;5104352;27;20059;-57
2023/08/20 02:13:39;;;;;;;2.17;1.55;;;14.20;99.90;;;;;;5128404;27;20100;-56
2023/08/20 02:16:06;;;;;;;3.47;1.73;;;14.20;99.90;;;;;;5124280;27;20476;-57
2023/08/20 02:18:32;;;;;;;3.97;2.13;;;14.20;99.90;;;;;;5127031;27;20362;-55
2023/08/20 02:21:01;;;;;;;4.25;2.10;;;14.10;99.90;;;;;;5107447;27;20054;-55
2023/08/20 02:23:27;;;;;;;3.35;1.85;;;14.10;99.90;;;;;;5126880;27;20515;-58
2023/08/20 02:25:53;;;;;;;4.38;1.95;;;14.00;99.90;;;;;;5126383;27;20051;-55
2023/08/20 02:28:18;;;;;;;5.38;2.53;;;13.90;99.90;;;;;;5128361;27;20046;-56
2023/08/20 02:30:48;;;;;;;4.38;2.33;;;14.00;99.90;;;;;;5109420;27;20054;-56
2023/08/20 02:33:14;;;;;;;3.47;1.90;;;13.90;99.90;;;;;;5113337;27;20134;-56
2023/08/20 02:35:40;;;;;;;2.83;2.00;;;13.90;99.90;;;;;;5130528;27;20096;-56
2023/08/20 02:38:07;;;;;;;3.92;1.88;;;14.00;99.90;;;;;;5124877;27;20393;-57
2023/08/20 02:40:32;;;;;;;3.22;1.95;;;14.00;99.90;;;;;;5123911;27;20470;-56
2023/08/20 02:42:58;;;;;;;4.20;2.63;;;14.00;99.90;;;;;;5123687;27;20501;-56
2023/08/20 02:45:24;;;;;;;2.95;2.08;;;14.00;99.90;;;;;;5129827;27;20050;-56
2023/08/20 02:47:49;;;;;;;4.43;1.63;;;14.00;99.90;;;;;;5125429;27;20155;-56
2023/08/20 02:50:15;;;;;;;2.97;2.28;;;14.00;99.90;;;;;;5125203;27;20484;-57
2023/08/20 02:52:48;;;;;;;3.03;1.63;;;14.00;99.90;;;;;;5127427;27;20211;-57
2023/08/20 02:55:13;;;;;;;2.72;1.10;;;14.00;99.90;;;;;;5107404;27;20777;-57
2023/08/20 02:57:39;;;;;;;4.32;1.73;;;13.90;99.90;;;;;;5127642;27;20070;-57
2023/08/20 03:00:09;;;;;;;4.78;1.70;;;13.90;99.90;;;;;;5103698;27;20055;-55
2023/08/20 03:02:35;;;;;;;7.97;4.13;;;13.90;99.90;;;;;;5130724;27;20134;-57
2023/08/20 03:05:01;;;;;;;11.63;4.95;;;13.90;99.90;;;;;;5105225;27;20571;-57
2023/08/20 03:07:26;;;;;;;14.60;6.15;;;14.20;99.90;;;;;;5107603;27;20054;-58
2023/08/20 03:09:52;;;;;;;10.20;6.47;;;13.50;99.90;;;;;;5126181;27;20055;-56
2023/08/20 03:12:18;;;;;;;8.80;5.93;;;14.40;99.90;;;;;;5126448;27;20511;-57
2023/08/20 03:14:43;;;;;;;16.42;7.65;;;14.40;99.90;;;;;;5109806;27;20108;-61
2023/08/20 03:17:09;;;;;;;14.40;6.68;;;14.60;99.90;;;;;;5122323;27;20052;-58
2023/08/20 03:19:35;;;;;;;11.05;6.72;;;14.60;99.90;;;;;;5128759;27;20606;-62
2023/08/20 03:22:01;;;;;;;8.48;5.88;;;14.50;99.90;;;;;;5124384;27;20457;-56
2023/08/20 03:24:27;;;;;;;8.38;5.13;;;14.50;99.90;;;;;;5131995;27;20055;-61
2023/08/20 03:26:52;;;;;;;8.82;5.22;;;14.60;99.90;;;;;;5126105;27;20055;-60
2023/08/20 03:29:18;;;;;;;10.55;5.03;;;14.40;99.90;;;;;;5124659;27;20099;-62
2023/08/20 03:31:44;;;;;;;7.18;4.10;;;14.40;99.90;;;;;;5128138;27;20583;-61
2023/08/20 03:34:13;;;;;;;7.20;4.75;;;14.30;99.90;;;;;;5095062;28;20172;-62
2023/08/20 03:36:39;;;;;;;6.80;4.60;;;14.20;99.90;;;;;;5118762;27;20556;-60
2023/08/20 03:39:05;;;;;;;8.98;5.30;;;14.30;99.90;;;;;;5124260;27;20071;-62
2023/08/20 03:41:30;;;;;;;11.80;6.30;;;14.30;99.90;;;;;;5126511;27;20142;-62
2023/08/20 03:43:56;;;;;;;10.27;5.80;;;14.40;99.90;;;;;;5127820;27;20519;-62
2023/08/20 03:46:22;;;;;;;12.80;6.43;;;14.40;99.90;;;;;;5122725;27;20055;-63
2023/08/20 03:48:48;;;;;;;14.05;6.60;;;14.40;99.90;;;;;;5109067;27;20066;-61
2023/08/20 03:51:14;;;;;;;10.23;5.47;;;14.50;99.90;;;;;;5123441;27;20055;-62
2023/08/20 03:53:40;;;;;;;8.07;5.25;;;14.40;99.90;;;;;;5109700;27;20058;-57
2023/08/20 03:56:05;;;;;;;11.32;6.43;;;14.50;99.90;;;;;;5094350;28;20067;-60
2023/08/20 03:58:31;;;;;;;7.35;5.22;;;14.40;99.90;;;;;;5111624;27;20051;-62
2023/08/20 04:00:56;;;;;;;7.50;5.88;;;14.40;99.90;;;;;;5124925;27;20058;-62
2023/08/20 04:03:22;;;;;;;7.40;5.55;;;14.40;99.90;;;;;;5123679;27;20519;-63
2023/08/20 04:05:49;;;;;;;6.70;4.72;;;14.30;99.90;;;;;;5105690;27;20495;-59
2023/08/20 04:08:15;;;;;;;11.75;5.35;;;14.30;99.90;;;;;;5114643;27;20956;-57
2023/08/20 04:10:48;;;;;;;8.38;5.07;;;14.30;99.90;;;;;;5128118;27;20055;-58
2023/08/20 04:13:14;;;;;;;6.10;4.18;;;14.20;99.90;;;;;;5117384;27;20051;-60
2023/08/20 04:15:41;;;;;;;6.20;4.70;;;14.20;99.90;;;;;;5113001;27;20059;-61
2023/08/20 04:18:06;;;;;;;8.55;5.25;;;14.20;99.90;;;;;;5111949;27;20067;-60
2023/08/20 04:20:33;;;;;;;5.25;4.43;;;14.10;99.90;;;;;;5126997;27;20420;-60
2023/08/20 04:22:58;;;;;;;5.07;4.47;;;14.10;99.90;;;;;;5095689;27;20857;-61
2023/08/20 04:25:24;;;;;;;5.50;4.65;;;14.00;99.90;;;;;;5128524;27;20051;-57
2023/08/20 04:27:50;;;;;;;4.88;4.18;;;13.90;99.90;;;;;;5107123;27;20087;-57
2023/08/20 04:30:15;;;;;;;6.05;4.60;;;13.90;99.90;;;;;;5126360;27;20108;-56
2023/08/20 04:32:41;;;;;;;8.73;3.75;;;13.90;99.90;;;;;;5085883;27;20075;-56
2023/08/20 04:35:07;;;;;;;9.32;4.75;;;14.20;99.90;;;;;;5129736;27;20067;-57
2023/08/20 04:37:33;;;;;;;7.75;6.35;;;14.00;99.90;;;;;;5129412;27;20512;-57
2023/08/20 04:39:58;;;;;;;8.50;4.57;;;14.00;99.90;;;;;;5127018;27;20058;-56
2023/08/20 04:42:24;;;;;;;11.85;6.07;;;14.10;99.90;;;;;;5128745;27;20055;-57
2023/08/20 04:44:50;;;;;;;6.30;5.72;;;14.20;99.90;;;;;;5124807;27;20063;-56
2023/08/20 04:47:15;;;;;;;14.45;6.82;;;14.30;99.90;;;;;;5131219;27;20050;-56
2023/08/20 04:49:41;;;;;;;9.70;5.78;;;14.40;99.90;;;;;;5128065;27;20077;-56
2023/08/20 04:52:07;;;;;;;9.60;5.22;;;14.30;99.90;;;;;;5088910;27;1114303;-56
2023/08/20 04:54:32;;;;;;;6.05;4.57;;;14.20;99.90;;;;;;5128054;27;20055;-55
2023/08/20 04:56:58;;;;;;;7.85;4.38;;;14.10;99.90;;;;;;5124554;27;20142;-57
2023/08/20 04:59:24;;;;;;;7.63;4.85;;;14.20;99.90;;;;;;5136874;27;20069;-59
2023/08/20 05:01:49;;;;;;;8.27;4.57;;;14.10;99.90;;;;;;5128207;27;20576;-56
2023/08/20 05:04:15;;;;;;;6.07;4.85;;;14.20;99.90;;;;;;5110637;27;20507;-59
2023/08/20 05:06:41;;;;;;;9.73;5.43;;;14.10;99.90;;;;;;5127852;27;20051;-58
2023/08/20 05:09:06;;;;;;;7.50;5.50;;;14.10;99.90;;;;;;5123298;27;20062;-54
2023/08/20 05:11:33;;;;;;;5.82;4.22;;;14.10;99.90;;;;;;5132480;27;20618;-57
2023/08/20 05:13:59;;;;;;;6.38;5.38;;;14.20;99.90;;;;;;5136938;27;20187;-57
2023/08/20 05:16:24;;;;;;;7.57;5.38;;;14.30;99.90;;;;;;5128680;27;20059;-56
2023/08/20 05:18:50;;;;;;;12.75;6.43;;;14.40;99.90;;;;;;5128554;27;20493;-56
2023/08/20 05:21:16;;;;;;;6.45;4.88;;;14.50;99.90;;;;;;5127578;27;20675;-56
2023/08/20 05:23:41;;;;;;;8.77;5.40;;;14.50;99.90;;;;;;5129835;27;20492;-56
2023/08/20 05:26:07;;;;;;;8.35;5.55;;;14.60;99.90;;;;;;5107376;27;22546;-57
2023/08/20 05:28:34;;;;;;;9.75;6.20;;;14.60;99.90;;;;;;5129024;27;20496;-56
2023/08/20 05:31:00;;;;;;;7.07;5.07;;;14.60;99.90;;;;;;5128885;27;20084;-56
2023/08/20 05:33:26;;;;;;;6.50;4.82;;;14.70;99.90;;;;;;5087288;27;20138;-56
2023/08/20 05:35:52;;;;;;;8.23;4.20;;;14.80;99.90;;;;;;5083761;28;20496;-56
2023/08/20 05:38:18;;;;;;;6.93;4.55;;;14.90;99.90;;;;;;5119840;27;20055;-57
2023/08/20 05:40:44;;;;;;;7.60;4.50;;;15.00;99.90;;;;;;5121637;27;20116;-57
2023/08/20 05:43:09;;;;;;;9.52;4.78;;;15.10;99.90;;;;;;5125110;27;20050;-57
2023/08/20 05:45:35;;;;;;;5.90;4.82;;;15.30;99.90;;;;;;5129737;27;20066;-58
2023/08/20 05:48:01;;;;;;;9.65;5.35;;;15.40;99.90;;;;;;5127623;27;20074;-57
2023/08/20 05:50:27;;;;;;;7.35;5.95;;;15.50;99.90;;;;;;5131867;27;20487;-56
2023/08/20 05:52:53;;;;;;;10.45;6.38;;;15.70;99.90;;;;;;5128720;27;20047;-57
2023/08/20 05:55:19;;;;;;;10.50;6.28;;;15.80;99.90;;;;;;5106239;27;20099;-57
2023/08/20 05:57:48;;;;;;;9.27;6.63;;;16.00;99.90;;;;;;5120806;27;20055;-58
2023/08/20 06:00:15;;;;;;;7.40;5.05;;;16.10;99.90;;;;;;5129192;27;20096;-57
2023/08/20 06:02:41;;;;;;;9.30;5.72;;;16.30;99.90;;;;;;5129633;27;20082;-58
2023/08/20 06:05:07;;;;;;;10.25;6.05;;;16.40;99.90;;;;;;5118487;27;20078;-58
2023/08/20 06:07:33;;;;;;;11.18;6.25;;;16.70;99.90;;;;;;5124115;27;20054;-57
2023/08/20 06:09:59;;;;;;;10.63;6.57;;;16.80;99.90;;;;;;5128240;27;20192;-56
2023/08/20 06:12:25;;;;;;;10.32;5.75;;;17.00;99.90;;;;;;5124935;27;20049;-58
2023/08/20 06:14:50;;;;;;;7.10;5.30;;;17.30;99.90;;;;;;5124948;27;20124;-57
2023/08/20 06:17:16;;;;;;;12.00;6.05;;;17.40;99.90;;;;;;5129176;27;20082;-57
2023/08/20 06:19:42;;;;;;;6.75;5.07;;;17.60;99.90;;;;;;5134760;27;20042;-57
2023/08/20 06:22:07;;;;;;;9.25;4.95;;;17.90;99.90;;;;;;5131221;27;21406;-57
2023/08/20 06:24:33;;;;;;;9.27;5.18;;;18.10;99.90;;;;;;5123381;27;20059;-57
2023/08/20 06:26:59;;;;;;;7.50;5.30;;;18.30;99.90;;;;;;5133626;27;20066;-58
2023/08/20 06:29:25;;;;;;;5.75;4.28;;;18.50;99.90;;;;;;5127418;27;20051;-58
2023/08/20 06:31:50;;;;;;;8.23;4.80;;;18.70;99.90;;;;;;5112016;27;20460;-58
2023/08/20 06:34:16;;;;;;;8.85;4.78;;;18.90;99.90;;;;;;5089868;27;21663;-57
2023/08/20 06:36:42;;;;;;;7.47;5.00;;;19.20;99.90;;;;;;5090405;27;20070;-56
2023/08/20 06:39:08;;;;;;;10.27;4.75;;;19.30;99.90;;;;;;5109473;27;21137;-56
2023/08/20 06:41:35;;;;;;;9.88;6.40;;;19.60;99.90;;;;;;5130201;27;20416;-57
2023/08/20 06:44:01;;;;;;;8.02;4.38;;;19.70;99.90;;;;;;5129643;27;20061;-56
2023/08/20 06:46:27;;;;;;;9.80;5.00;;;19.90;99.90;;;;;;5124297;27;20051;-57
2023/08/20 06:48:53;;;;;;;8.88;4.72;;;19.90;99.90;;;;;;5109650;27;20059;-56
2023/08/20 06:51:22;;;;;;;6.90;4.57;;;20.20;99.90;;;;;;5112384;27;20055;-57
2023/08/20 06:53:49;;;;;;;10.45;4.22;;;20.30;99.90;;;;;;5126101;27;20101;-56
2023/08/20 06:56:15;;;;;;;7.90;4.63;;;20.60;99.90;;;;;;5110444;27;20107;-57
2023/08/20 06:58:42;;;;;;;6.15;3.50;;;20.70;99.90;;;;;;5090156;27;20504;-57
2023/08/20 07:01:08;;;;;;;7.65;4.05;;;20.80;99.90;;;;;;5130289;27;20049;-57
2023/08/20 07:03:39;;;;;;;8.27;4.53;;;21.10;99.90;;;;;;5123872;27;20062;-56
2023/08/20 07:06:06;;;;;;;6.80;3.30;;;21.20;99.90;;;;;;5126280;27;20070;-57
2023/08/20 07:08:32;;;;;;;8.35;3.45;;;21.50;99.90;;;;;;5106051;27;20062;-57
2023/08/20 07:10:58;;;;;;;6.40;2.92;;;21.70;99.90;;;;;;5123181;27;20051;-57
2023/08/20 07:13:24;;;;;;;6.95;4.03;;;22.00;99.90;;;;;;5127185;27;20496;-57
2023/08/20 07:15:50;;;;;;;8.18;2.70;;;22.10;99.90;;;;;;5122512;27;20062;-57
2023/08/20 07:18:16;;;;;;;5.38;2.85;;;22.20;99.90;;;;;;5105995;27;20075;-57
2023/08/20 07:20:48;;;;;;;6.63;3.55;;;22.40;99.90;;;;;;5123740;27;20154;-59
2023/08/20 07:23:13;;;;;;;6.93;3.15;;;22.20;99.90;;;;;;5116531;27;20049;-64
2023/08/20 07:25:41;;;;;;;9.30;3.67;;;22.10;99.90;;;;;;5125751;27;20063;-65
2023/08/20 07:28:08;;;;;;;8.38;2.40;;;22.50;99.90;;;;;;5123100;27;20087;-57
2023/08/20 07:30:34;;;;;;;7.53;3.47;;;22.60;99.90;;;;;;5126470;27;20083;-61
2023/08/20 07:33:00;;;;;;;9.20;2.97;;;22.50;99.90;;;;;;5100853;27;20055;-62
2023/08/20 07:35:26;;;;;;;6.63;2.58;;;22.50;99.90;;;;;;5132482;27;20066;-61
2023/08/20 07:37:51;;;;;;;9.98;3.65;;;22.70;99.90;;;;;;5070372;28;20127;-57
2023/08/20 07:40:17;;;;;;;9.45;2.47;;;22.50;99.90;;;;;;5119470;27;20083;-57
2023/08/20 07:42:43;;;;;;;13.43;3.10;;;22.80;99.90;;;;;;5128298;27;20686;-61
2023/08/20 07:45:10;;;;;;;6.18;2.30;;;23.00;99.90;;;;;;5125842;27;20698;-66
2023/08/20 07:47:36;;;;;;;5.35;2.05;;;23.00;99.90;;;;;;5131254;27;20059;-62
2023/08/20 07:50:06;;;;;;;6.75;2.00;;;23.10;99.90;;;;;;5125085;27;20093;-65
2023/08/20 07:52:32;;;;;;;5.07;2.45;;;23.10;99.90;;;;;;5131165;27;20538;-57
2023/08/20 07:54:58;;;;;;;8.20;2.30;;;23.40;99.90;;;;;;5122630;27;20055;-56
2023/08/20 07:57:24;;;;;;;4.97;2.75;;;23.50;99.90;;;;;;5135308;27;20066;-57
2023/08/20 07:59:50;;;;;;;12.25;2.28;;;23.80;99.90;;;;;;5127927;27;20408;-56
2023/08/20 08:02:16;;;;;;;5.63;1.65;;;24.00;99.90;;;;;;5131923;27;20069;-57
2023/08/20 08:04:42;;;;;;;9.13;2.42;;;23.90;99.90;;;;;;5130803;27;20055;-57
2023/08/20 08:07:08;;;;;;;6.97;2.42;;;24.40;99.90;;;;;;5100345;27;20084;-57
2023/08/20 08:09:34;;;;;;;7.78;3.10;;;24.80;99.90;;;;;;5122100;27;20423;-57
2023/08/20 08:12:00;;;;;;;21.10;3.00;;;25.10;99.90;;;;;;5115311;27;20055;-57
2023/08/20 08:14:26;;;;;;;3.97;1.77;;;25.10;99.90;;;;;;5118179;27;20059;-57
2023/08/20 08:16:52;;;;;;;3.88;1.90;;;25.50;99.90;;;;;;5123484;27;20100;-56
2023/08/20 08:19:18;;;;;;;5.30;1.58;;;26.00;99.90;;;;;;5136998;27;20138;-57
2023/08/20 08:21:48;;;;;;;6.30;1.92;;;26.20;99.90;;;;;;5131405;27;20055;-57
2023/08/20 08:24:14;;;;;;;3.20;1.63;;;26.80;99.90;;;;;;5122726;27;20756;-57
2023/08/20 08:26:41;;;;;;;5.18;1.63;;;26.70;99.90;;;;;;5138907;27;20054;-57
2023/08/20 08:29:08;;;;;;;7.78;2.30;;;26.80;99.90;;;;;;5132982;27;20365;-57
2023/08/20 08:31:34;;;;;;;4.43;1.60;;;27.20;99.90;;;;;;5138048;27;20098;-57
2023/08/20 08:34:01;;;;;;;5.18;2.03;;;27.40;99.90;;;;;;5132620;27;20066;-58
2023/08/20 08:36:27;;;;;;;5.30;1.90;;;26.70;99.90;;;;;;5127376;27;20088;-58
2023/08/20 08:38:53;;;;;;;4.15;1.23;;;26.70;99.90;;;;;;5126532;27;20058;-58
2023/08/20 08:41:25;;;;;;;5.90;1.75;;;26.80;99.90;;;;;;5122907;27;20056;-58
2023/08/20 08:43:51;;;;;;;6.07;1.63;;;26.40;99.90;;;;;;5126932;27;20054;-58
2023/08/20 08:46:17;;;;;;;4.80;1.50;;;26.70;99.90;;;;;;5111109;27;20051;-57
2023/08/20 08:48:48;;;;;;;9.48;2.78;;;26.40;99.90;;;;;;5125366;27;20059;-58
2023/08/20 08:51:14;;;;;;;8.85;2.20;;;26.30;99.90;;;;;;5087206;28;21178;-58
2023/08/20 08:53:42;;;;;;;5.38;1.73;;;26.50;99.90;;;;;;5113743;27;20059;-57
2023/08/20 08:56:07;;;;;;;5.10;1.60;;;26.00;99.90;;;;;;5131566;27;20063;-58
2023/08/20 08:58:33;;;;;;;4.53;1.20;;;26.50;99.90;;;;;;5113980;27;20065;-58
2023/08/20 09:01:00;;;;;;;4.53;1.58;;;26.90;99.90;;;;;;5132726;27;20047;-59
2023/08/20 09:03:26;;;;;;;7.72;1.70;;;27.20;99.90;;;;;;5134432;27;20058;-57
2023/08/20 09:06:05;;;;;;;6.72;1.35;;;27.40;99.90;;;;;;5110283;27;20059;-57
2023/08/20 09:08:32;;;;;;;5.00;1.63;;;27.40;99.90;;;;;;5115652;27;20058;-57
2023/08/20 09:10:59;;;;;;;2.72;1.63;;;27.30;99.90;;;;;;5094378;27;1100090;-57
2023/08/20 09:13:32;;;;;;;6.50;1.38;;;27.30;99.90;;;;;;5130511;27;20047;-57
2023/08/20 09:15:58;;;;;;;3.58;1.23;;;26.90;99.90;;;;;;5129886;27;20054;-57
2023/08/20 09:18:24;;;;;;;3.50;1.15;;;27.50;99.90;;;;;;5112227;27;20058;-58
2023/08/20 09:20:50;;;;;;;3.03;1.05;;;28.00;99.90;;;;;;5105614;27;20062;-58
2023/08/20 09:23:16;;;;;;;5.65;1.88;;;28.30;99.90;;;;;;5105935;27;20106;-57
2023/08/20 09:25:44;;;;;;;2.88;1.55;;;28.40;99.90;;;;;;5124492;27;20050;-57
2023/08/20 09:28:14;;;;;;;5.45;1.10;;;29.00;99.90;;;;;;5112976;27;20853;-58
2023/08/20 09:30:41;;;;;;;9.45;1.80;;;28.80;99.90;;;;;;5122272;27;20054;-58
2023/08/20 09:33:14;;;;;;;3.22;0.80;;;28.30;99.90;;;;;;5119281;27;20157;-57
2023/08/20 09:35:48;;;;;;;4.20;1.20;;;28.30;99.90;;;;;;5129880;27;20138;-57
2023/08/20 09:38:14;;;;;;;5.70;1.70;;;28.90;99.90;;;;;;5128097;27;20050;-58
2023/08/20 09:40:40;;;;;;;4.68;1.40;;;28.80;99.90;;;;;;5104900;27;20093;-59
2023/08/20 09:43:09;;;;;;;5.97;1.52;;;28.70;99.90;;;;;;5087914;27;20069;-59
2023/08/20 09:45:36;;;;;;;6.90;1.27;;;28.80;99.90;;;;;;5108348;27;20151;-58
2023/08/20 09:48:05;;;;;;;6.07;1.38;;;29.10;99.90;;;;;;5097046;27;20078;-57
2023/08/20 09:50:36;;;;;;;3.80;1.42;;;29.00;99.90;;;;;;5131105;27;20145;-57
2023/08/20 09:53:27;;;;;;;2.67;1.13;;;28.20;99.90;;;;;;5128696;27;20050;-57
2023/08/20 09:55:55;;;;;;;4.38;1.10;;;28.00;99.90;;;;;;5124201;27;20063;-58
2023/08/20 09:58:25;;;;;;;4.95;1.10;;;26.90;99.90;;;;;;5099753;27;20051;-58
2023/08/20 10:00:51;;;;;;;3.28;0.82;;;26.90;99.90;;;;;;5104583;27;20055;-57
2023/08/20 10:03:20;;;;;;;5.53;1.00;;;27.00;99.90;;;;;;5117080;27;21174;-58
2023/08/20 10:05:50;;;;;;;3.42;1.63;;;27.40;99.90;;;;;;5128516;27;20062;-58
2023/08/20 10:08:17;;;;;;;3.80;1.35;;;28.00;99.90;;;;;;5097842;27;21045;-58
2023/08/20 10:10:43;;;;;;;2.60;1.00;;;28.20;99.90;;;;;;5095361;27;20420;-58
2023/08/20 10:13:09;;;;;;;3.42;1.05;;;27.80;99.90;;;;;;5129611;27;20059;-58
2023/08/20 10:15:37;;;;;;;2.40;1.17;;;28.50;99.90;;;;;;5131042;27;20050;-58
2023/08/20 10:18:04;;;;;;;5.40;1.10;;;28.60;99.90;;;;;;5127684;27;20057;-58
2023/08/20 10:20:31;;;;;;;4.35;1.67;;;28.30;99.90;;;;;;5128584;27;20069;-58
2023/08/20 10:23:02;;;;;;;4.07;1.17;;;28.20;99.90;;;;;;5120842;27;20412;-58
2023/08/20 10:25:29;;;;;;;7.00;1.20;;;28.60;99.90;;;;;;5120032;27;20067;-58
2023/08/20 10:28:22;;;;;;;5.65;1.17;;;28.20;99.90;;;;;;5120377;27;20051;-57
2023/08/20 10:31:07;;;;;;;3.85;1.00;;;28.40;99.90;;;;;;5107045;27;20065;-59
2023/08/20 10:33:37;;;;;;;4.72;1.33;;;28.40;99.90;;;;;;5121499;27;20097;-58
2023/08/20 10:36:16;;;;;;;8.63;1.77;;;28.80;99.90;;;;;;5099487;27;20670;-57
2023/08/20 10:38:44;;;;;;;4.68;1.60;;;29.30;99.90;;;;;;5110292;27;20619;-58
2023/08/20 10:41:36;;;;;;;4.50;1.00;;;29.20;99.90;;;;;;5114771;27;20058;-58
2023/08/20 10:44:02;;;;;;;9.90;1.92;;;28.80;99.90;;;;;;5118272;27;20701;-57
2023/08/20 10:46:34;;;;;;;6.70;1.40;;;28.50;99.90;;;;;;5121348;27;20047;-58
2023/08/20 10:49:03;;;;;;;4.22;1.17;;;28.80;99.90;;;;;;5100891;27;20369;-57
2023/08/20 10:51:40;;;;;;;4.50;1.38;;;28.50;99.90;;;;;;5123000;27;20054;-58
2023/08/20 10:54:08;;;;;;;6.32;1.20;;;28.50;99.90;;;;;;5100892;27;20468;-58
2023/08/20 10:56:48;;;;;;;4.32;1.40;;;28.80;99.90;;;;;;5130742;27;20051;-58
2023/08/20 10:59:25;;;;;;;4.78;1.35;;;28.60;99.90;;;;;;5106197;27;20219;-58
2023/08/20 11:01:54;;;;;;;3.53;1.08;;;28.40;99.90;;;;;;5122209;27;20145;-58
2023/08/20 11:04:21;;;;;;;3.97;1.13;;;28.10;99.90;;;;;;5128563;27;20073;-57
2023/08/20 11:06:59;;;;;;;4.95;1.63;;;28.40;99.90;;;;;;5110921;27;20054;-58
2023/08/20 11:09:27;;;;;;;1.80;1.02;;;29.00;99.90;;;;;;5132415;27;20055;-63
2023/08/20 11:11:53;;;;;;;2.83;0.90;;;29.30;99.90;;;;;;5133470;27;20051;-57
2023/08/20 11:14:20;;;;;;;1.85;0.95;;;29.50;99.90;;;;;;5133042;27;20085;-62
2023/08/20 11:16:50;;;;;;;4.25;1.27;;;29.30;99.90;;;;;;5133138;27;20055;-70
2023/08/20 11:19:21;;;;;;;3.25;1.17;;;29.40;99.90;;;;;;5123342;27;20042;-70
2023/08/20 11:21:48;;;;;;;3.63;1.60;;;28.80;99.90;;;;;;5106531;27;20061;-58
2023/08/20 11:24:14;;;;;;;4.55;1.20;;;28.20;99.90;;;;;;5119707;27;20845;-58
2023/08/20 11:26:41;;;;;;;2.70;0.80;;;28.90;99.90;;;;;;5129551;27;20059;-59
2023/08/20 11:29:07;;;;;;;3.40;1.48;;;30.20;99.90;;;;;;5115720;27;20120;-58
2023/08/20 11:31:34;;;;;;;1.77;0.77;;;32.00;99.90;;;;;;5111737;27;20587;-59
2023/08/20 11:34:02;;;;;;;3.13;0.88;;;34.00;99.90;;;;;;5103618;27;20046;-58
2023/08/20 11:36:28;;;;;;;6.85;1.13;;;34.40;99.90;;;;;;5117746;27;20583;-59
2023/08/20 11:38:54;;;;;;;3.38;0.90;;;34.30;99.30;;;;;;5125122;27;20061;-58
2023/08/20 11:41:21;;;;;;;2.78;1.05;;;34.40;99.90;;;;;;5129893;27;20089;-58
2023/08/20 11:43:51;;;;;;;2.53;1.00;;;34.70;98.60;;;;;;5121513;27;20055;-58
2023/08/20 11:46:19;;;;;;;3.47;0.93;;;35.00;98.20;;;;;;5088595;28;20059;-57
2023/08/20 11:49:28;;;;;;;3.22;0.88;;;36.30;98.60;;;;;;5113415;27;20821;-57
2023/08/20 11:51:55;;;;;;;2.42;0.70;;;38.40;96.50;;;;;;5115385;27;20150;-58
2023/08/20 11:54:22;;;;;;;2.35;0.90;;;37.00;96.90;;;;;;5098775;28;20058;-58
2023/08/20 11:56:52;;;;;;;4.03;1.13;;;38.30;95.50;;;;;;5125491;27;20059;-57
2023/08/20 11:59:20;;;;;;;5.18;1.02;;;39.80;94.20;;;;;;5098276;28;20061;-57
2023/08/20 12:01:49;;;;;;;2.17;0.85;;;39.60;94.30;;;;;;5098336;28;20637;-58
2023/08/20 12:04:15;;;;;;;4.07;1.15;;;39.30;93.80;;;;;;5114803;27;20488;-58
2023/08/20 12:06:42;;;;;;;3.10;0.60;;;38.40;94.10;;;;;;5103516;28;20108;-60
2023/08/20 12:09:23;;;;;;;2.33;1.35;;;39.00;94.00;;;;;;5105776;27;20051;-59
2023/08/20 12:11:50;;;;;;;2.60;1.00;;;38.00;92.70;;;;;;5127955;27;20051;-59
2023/08/20 12:14:20;;;;;;;4.40;1.20;;;37.50;94.00;;;;;;5101977;28;20051;-60
2023/08/20 12:16:52;;;;;;;2.38;0.70;;;40.00;93.40;;;;;;5103374;28;20060;-58
2023/08/20 12:19:18;;;;;;;3.92;1.27;;;40.00;93.10;;;;;;5115619;27;20501;-59
2023/08/20 12:21:43;;;;;;;5.50;1.65;;;40.20;92.50;;;;;;5100574;28;20063;-58
2023/08/20 12:24:10;;;;;;;3.95;1.20;;;40.70;92.00;;;;;;5128346;27;20062;-59
2023/08/20 12:26:39;;;;;;;2.38;0.80;;;40.80;91.00;;;;;;5126392;27;20054;-58
2023/08/20 12:29:06;;;;;;;2.72;0.60;;;41.20;90.90;;;;;;5107526;27;20064;-58
2023/08/20 12:31:32;;;;;;;1.77;0.50;;;40.70;90.90;;;;;;5126663;27;20246;-58
2023/08/20 12:33:59;;;;;;;3.75;0.90;;;41.00;90.70;;;;;;5124378;27;20093;-58
2023/08/20 12:36:25;;;;;;;0.82;0.43;;;39.00;91.50;;;;;;5101724;27;20064;-58
2023/08/20 12:38:51;;;;;;;1.77;0.65;;;40.50;90.70;;;;;;5117577;27;20051;-58
2023/08/20 12:41:16;;;;;;;5.00;0.85;;;40.00;90.60;;;;;;5123532;27;20043;-58
2023/08/20 12:43:42;;;;;;;2.47;0.90;;;40.80;90.80;;;;;;5131148;27;20191;-58
2023/08/20 12:46:08;;;;;;;2.00;1.08;;;42.00;90.20;;;;;;5107609;27;20862;-60